Luxemburg, Iowa
Current Conditions -  °F | °C
As of 10:18 AM on Monday 26 Jan 2015 (Local Time) from KDBQ Reporting Station
Haze Haze  
Wind Chill:   Ceiling: 1900
Heat Index: 20°   Visibility: 5mi
Dew Point: 17°   Wind: 14mph
Humidity: 89%   Direction: 180°S
Pressure: 29.84"   Gusts: NA
Location:  42.6°N, 91.07°W
Report Text: KDBQ 261618Z 18012KT 5SM BR BKN019 BKN030 OVC035 M07/M08 A2984 RMK AO2 SNE01 P0000 T10671083
Loading
Personal Weather Stations






























Interactive Weather Map New forecast layout! Learn more

10-Day Weather Forecast

Advertisements
Track Severe Weather on mobile